createdAt,value
2018-02-24T00:02:24.846Z,15.90
2018-02-24T00:04:52.427Z,14.93
2018-02-24T00:07:19.951Z,16.50
2018-02-24T00:09:47.627Z,17.42
2018-02-24T00:12:15.318Z,15.00
2018-02-24T00:14:43.626Z,15.85
2018-02-24T00:17:11.213Z,16.25
2018-02-24T00:19:38.735Z,16.67
2018-02-24T00:22:06.307Z,15.30
2018-02-24T00:24:33.814Z,16.25
2018-02-24T00:27:01.414Z,17.33
2018-02-24T00:29:28.970Z,17.40
2018-02-24T00:31:56.563Z,17.10
2018-02-24T00:34:25.059Z,17.95
2018-02-24T00:36:52.637Z,16.95
2018-02-24T00:39:20.163Z,16.95
2018-02-24T00:41:48.880Z,16.87
2018-02-24T00:44:16.425Z,16.40
2018-02-24T00:46:44.003Z,16.33
2018-02-24T00:49:11.715Z,18.80
2018-02-24T00:51:40.047Z,15.15
2018-02-24T00:54:07.566Z,16.02
2018-02-24T00:56:35.924Z,17.45
2018-02-24T00:59:03.463Z,17.27
2018-02-24T01:01:31.169Z,16.33
2018-02-24T01:03:59.503Z,17.92
2018-02-24T01:06:27.100Z,17.60
2018-02-24T01:08:55.418Z,18.23
2018-02-24T01:11:23.069Z,16.67
2018-02-24T01:13:50.622Z,14.90
2018-02-24T01:16:18.199Z,18.37
2018-02-24T01:18:45.723Z,17.70
2018-02-24T01:21:14.019Z,18.75
2018-02-24T01:23:41.578Z,18.58
2018-02-24T01:26:09.132Z,17.85
2018-02-24T01:28:36.685Z,16.15
2018-02-24T01:31:04.227Z,18.10
2018-02-24T01:33:32.526Z,17.73
2018-02-24T01:36:01.083Z,15.98
2018-02-24T01:38:29.492Z,17.98
2018-02-24T01:40:57.052Z,15.70
2018-02-24T01:43:24.560Z,16.87
2018-02-24T01:45:52.115Z,17.33
2018-02-24T01:48:19.731Z,15.75
2018-02-24T01:50:47.312Z,18.62
2018-02-24T01:53:14.944Z,18.50
2018-02-24T01:55:42.500Z,18.08
2018-02-24T01:58:10.142Z,16.92
2018-02-24T02:00:38.596Z,18.42
2018-02-24T02:03:06.214Z,17.90
2018-02-24T02:05:33.776Z,16.50
2018-02-24T02:08:01.324Z,16.55
2018-02-24T02:10:28.907Z,16.67
2018-02-24T02:12:56.419Z,17.33
2018-02-24T02:15:24.754Z,16.37
2018-02-24T02:17:52.287Z,17.20
2018-02-24T02:20:19.871Z,16.80
2018-02-24T02:22:47.518Z,18.83
2018-02-24T02:25:15.072Z,16.52
2018-02-24T02:27:42.611Z,16.25
2018-02-24T02:30:10.937Z,17.00
2018-02-24T02:32:38.471Z,16.52
2018-02-24T02:35:06.108Z,16.35
2018-02-24T02:37:34.385Z,17.98
2018-02-24T02:40:01.951Z,16.62
2018-02-24T02:42:29.596Z,15.77
2018-02-24T02:44:58.010Z,15.95
2018-02-24T02:47:25.531Z,16.37
2018-02-24T02:49:53.826Z,14.93
2018-02-24T02:52:21.337Z,15.90
2018-02-24T02:54:48.861Z,15.35
2018-02-24T02:57:16.402Z,15.45
2018-02-24T02:59:43.921Z,15.98
2018-02-24T03:02:11.463Z,13.77
2018-02-24T03:04:39.083Z,14.95
2018-02-24T03:07:06.634Z,14.87
2018-02-24T03:09:34.161Z,16.12
2018-02-24T03:12:01.725Z,14.73
2018-02-24T03:14:29.274Z,15.48
2018-02-24T03:16:56.830Z,15.95
2018-02-24T03:19:24.396Z,16.80
2018-02-24T03:21:51.948Z,28.27
2018-02-24T03:24:19.485Z,14.20
2018-02-24T03:26:47.187Z,15.82
2018-02-24T03:29:14.723Z,15.15
2018-02-24T03:31:42.353Z,14.70
2018-02-24T03:34:09.888Z,13.98
2018-02-24T03:36:37.493Z,15.40
2018-02-24T03:39:05.034Z,14.90
2018-02-24T03:41:32.587Z,14.15
2018-02-24T03:44:00.363Z,16.30
2018-02-24T03:46:28.059Z,13.57
2018-02-24T03:48:56.493Z,14.10
2018-02-24T03:51:24.037Z,12.85
2018-02-24T03:53:51.716Z,13.40
2018-02-24T03:56:19.377Z,14.73
2018-02-24T03:58:46.894Z,13.88
2018-02-24T04:01:14.461Z,14.23
2018-02-24T04:03:42.791Z,13.32
2018-02-24T04:06:10.424Z,13.55
2018-02-24T04:08:37.943Z,13.80
2018-02-24T04:11:05.499Z,13.73
2018-02-24T04:13:33.094Z,12.48
2018-02-24T04:16:01.418Z,13.55
2018-02-24T04:18:28.976Z,11.45
2018-02-24T04:20:56.666Z,13.23
2018-02-24T04:23:25.971Z,12.45
2018-02-24T04:25:53.574Z,11.65
2018-02-24T04:28:21.107Z,11.40
2018-02-24T04:30:49.435Z,12.73
2018-02-24T04:33:16.956Z,12.70
2018-02-24T04:35:44.515Z,12.32
2018-02-24T04:38:12.063Z,13.27
2018-02-24T04:40:40.453Z,12.88
2018-02-24T04:43:07.969Z,11.73
2018-02-24T04:45:35.504Z,13.57
2018-02-24T04:48:03.038Z,12.10
2018-02-24T04:50:30.567Z,11.82
2018-02-24T04:52:58.855Z,11.50
2018-02-24T04:55:27.204Z,13.23
2018-02-24T04:57:54.818Z,12.82
2018-02-24T05:00:22.466Z,12.45
2018-02-24T05:02:50.000Z,13.00
2018-02-24T05:05:18.323Z,12.37
2018-02-24T05:07:46.511Z,11.80
2018-02-24T05:10:14.051Z,12.10
2018-02-24T05:12:41.582Z,12.48
2018-02-24T05:15:09.884Z,12.80
2018-02-24T05:17:37.400Z,12.75
2018-02-24T05:20:06.752Z,11.12
2018-02-24T05:22:34.263Z,11.90
2018-02-24T05:25:02.630Z,13.20
2018-02-24T05:27:30.222Z,13.23
2018-02-24T05:29:57.770Z,12.88
2018-02-24T05:32:26.068Z,13.13
2018-02-24T05:34:53.631Z,12.77
2018-02-24T05:37:21.143Z,14.50
2018-02-24T05:39:48.678Z,13.10
2018-02-24T05:42:16.268Z,14.38
2018-02-24T05:44:43.819Z,14.70
2018-02-24T05:47:11.324Z,14.43
2018-02-24T05:49:38.855Z,13.60
2018-02-24T05:52:07.161Z,12.43
2018-02-24T05:54:34.756Z,14.20
2018-02-24T05:57:02.291Z,12.40
2018-02-24T05:59:29.876Z,12.40
2018-02-24T06:01:57.407Z,13.23
2018-02-24T06:04:25.064Z,12.82
2018-02-24T06:06:52.580Z,13.65
2018-02-24T06:09:20.146Z,14.87
2018-02-24T06:11:48.464Z,13.23
2018-02-24T06:14:15.977Z,12.73
2018-02-24T06:16:43.528Z,12.93
2018-02-24T06:19:11.089Z,13.77
2018-02-24T06:21:38.698Z,12.65
2018-02-24T06:24:06.346Z,12.48
2018-02-24T06:26:33.880Z,13.95
2018-02-24T06:29:02.211Z,11.90
2018-02-24T06:31:29.757Z,11.38
2018-02-24T06:33:57.310Z,11.35
2018-02-24T06:36:24.832Z,12.80
2018-02-24T06:38:53.089Z,12.70
2018-02-24T06:41:20.695Z,12.35
2018-02-24T06:43:48.341Z,11.52
2018-02-24T06:46:16.634Z,12.07
2018-02-24T06:48:44.200Z,12.25
2018-02-24T06:51:12.568Z,11.15
2018-02-24T06:53:40.195Z,12.48
2018-02-24T06:56:07.758Z,12.77
2018-02-24T06:58:35.360Z,13.43
2018-02-24T07:01:02.880Z,11.02
2018-02-24T07:03:30.418Z,11.52
2018-02-24T07:05:58.068Z,11.43
2018-02-24T07:08:25.585Z,12.90
2018-02-24T07:10:53.159Z,11.02
2018-02-24T07:13:20.693Z,10.60
2018-02-24T07:15:49.026Z,13.25
2018-02-24T07:18:16.575Z,11.90
2018-02-24T07:20:44.204Z,11.65
2018-02-24T07:23:11.742Z,12.50
2018-02-24T07:25:40.144Z,12.73
2018-02-24T07:28:07.671Z,12.95
2018-02-24T07:30:35.239Z,10.95
2018-02-24T07:33:03.538Z,11.75
2018-02-24T07:35:31.086Z,12.23
2018-02-24T07:37:59.476Z,11.95
2018-02-24T07:40:27.036Z,11.38
2018-02-24T07:42:54.709Z,9.88
2018-02-24T07:45:22.285Z,11.93
2018-02-24T07:47:49.847Z,12.25
2018-02-24T07:50:17.393Z,12.40
2018-02-24T07:52:44.924Z,11.18
2018-02-24T07:55:13.316Z,10.88
2018-02-24T07:57:50.755Z,11.32
2018-02-24T08:00:18.304Z,11.30
2018-02-24T08:02:47.727Z,10.15
2018-02-24T08:05:15.283Z,10.93
2018-02-24T08:07:53.641Z,10.00
2018-02-24T08:10:21.212Z,9.70
2018-02-24T08:12:48.758Z,10.65
2018-02-24T08:15:16.349Z,10.07
2018-02-24T08:17:44.194Z,10.20
2018-02-24T08:20:11.762Z,10.40
2018-02-24T08:22:39.387Z,9.50
2018-02-24T08:25:07.733Z,11.18
2018-02-24T08:27:35.336Z,9.93
2018-02-24T08:30:03.966Z,10.77
2018-02-24T08:32:31.672Z,11.55
2018-02-24T08:35:00.499Z,10.40
2018-02-24T08:37:28.019Z,9.40
2018-02-24T08:39:56.343Z,9.30
2018-02-24T08:42:23.886Z,10.35
2018-02-24T08:44:51.456Z,10.32
2018-02-24T08:47:19.096Z,10.88
2018-02-24T08:49:46.640Z,10.40
2018-02-24T08:52:14.235Z,9.70
2018-02-24T08:54:41.764Z,9.68
2018-02-24T08:57:09.322Z,11.32
2018-02-24T08:59:36.866Z,10.27
2018-02-24T09:02:05.157Z,10.45
2018-02-24T09:04:32.707Z,10.25
2018-02-24T09:07:00.244Z,11.45
2018-02-24T09:09:28.552Z,9.88
2018-02-24T09:11:56.063Z,9.45
2018-02-24T09:14:23.625Z,10.15
2018-02-24T09:16:51.327Z,11.12
2018-02-24T09:19:18.945Z,10.77
2018-02-24T09:21:46.734Z,9.88
2018-02-24T09:24:15.028Z,9.88
2018-02-24T09:26:42.539Z,9.73
2018-02-24T09:29:10.104Z,9.57
2018-02-24T09:31:37.646Z,9.13
2018-02-24T09:34:05.522Z,10.60
2018-02-24T09:36:33.037Z,9.52
2018-02-24T09:39:06.331Z,9.70
2018-02-24T09:41:33.862Z,9.75
2018-02-24T09:44:01.421Z,8.95
2018-02-24T09:46:29.814Z,9.15
2018-02-24T09:48:57.497Z,9.80
2018-02-24T09:51:25.102Z,9.40
2018-02-24T09:53:53.732Z,9.23
2018-02-24T09:56:21.616Z,9.45
2018-02-24T09:58:49.401Z,8.48
2018-02-24T10:01:17.054Z,10.00
2018-02-24T10:03:44.681Z,7.85
2018-02-24T10:06:13.190Z,9.20
2018-02-24T10:08:51.064Z,10.15
2018-02-24T10:11:18.731Z,9.35
2018-02-24T10:13:46.247Z,8.43
2018-02-24T10:16:14.523Z,8.30
2018-02-24T10:18:42.992Z,7.90
2018-02-24T10:21:11.436Z,7.68
2018-02-24T10:23:39.071Z,7.45
2018-02-24T10:26:06.604Z,7.62
2018-02-24T10:28:34.929Z,7.60
2018-02-24T10:31:02.477Z,8.68
2018-02-24T10:33:30.026Z,8.80
2018-02-24T10:35:57.568Z,8.23
2018-02-24T10:38:25.200Z,9.13
2018-02-24T10:40:52.843Z,9.30
2018-02-24T10:43:20.404Z,8.80
2018-02-24T10:45:47.906Z,8.18
2018-02-24T10:48:15.488Z,8.10
2018-02-24T10:50:43.008Z,9.40
2018-02-24T10:53:11.332Z,8.00
2018-02-24T10:55:39.115Z,8.80
2018-02-24T10:58:06.828Z,7.53
2018-02-24T11:00:35.100Z,8.30
2018-02-24T11:03:03.485Z,8.00
2018-02-24T11:05:31.052Z,8.68
2018-02-24T11:07:58.577Z,7.40
2018-02-24T11:10:26.098Z,7.90
2018-02-24T11:12:53.676Z,8.52
2018-02-24T11:15:21.195Z,7.80
2018-02-24T11:17:48.837Z,8.75
2018-02-24T11:20:16.376Z,8.10
2018-02-24T11:22:44.708Z,8.55
2018-02-24T11:25:12.231Z,9.10
2018-02-24T11:27:40.541Z,7.93
2018-02-24T11:30:08.068Z,8.60
2018-02-24T11:32:35.648Z,8.45
2018-02-24T11:35:03.153Z,9.32
2018-02-24T11:37:30.762Z,8.70
2018-02-24T11:39:58.297Z,8.20
2018-02-24T11:42:26.604Z,8.00
2018-02-24T11:44:54.151Z,9.02
2018-02-24T11:47:21.691Z,8.98
2018-02-24T11:49:50.199Z,7.10
2018-02-24T11:52:17.738Z,8.20
2018-02-24T11:54:45.367Z,7.97
2018-02-24T11:57:12.915Z,8.45
2018-02-24T11:59:40.462Z,7.65
2018-02-24T12:02:07.984Z,7.65
2018-02-24T12:04:35.560Z,8.23
2018-02-24T12:07:03.131Z,7.82
2018-02-24T12:09:30.656Z,6.78
2018-02-24T12:11:58.206Z,8.20
2018-02-24T12:14:26.621Z,7.72
2018-02-24T12:16:54.125Z,8.70
2018-02-24T12:19:21.721Z,8.27
2018-02-24T12:21:49.243Z,9.02
2018-02-24T12:24:16.865Z,7.00
2018-02-24T12:26:44.413Z,7.20
2018-02-24T12:29:11.989Z,7.12
2018-02-24T12:31:39.531Z,7.28
2018-02-24T12:34:07.072Z,7.22
2018-02-24T12:36:34.584Z,7.05
2018-02-24T12:39:02.139Z,7.03
2018-02-24T12:41:29.668Z,8.55
2018-02-24T12:43:57.195Z,6.28
2018-02-24T12:46:25.464Z,5.82
2018-02-24T12:48:53.764Z,6.05
2018-02-24T12:51:21.272Z,5.80
2018-02-24T12:53:48.862Z,6.07
2018-02-24T12:56:17.140Z,6.40
2018-02-24T12:58:45.451Z,6.45
2018-02-24T13:01:12.955Z,6.55
2018-02-24T13:03:40.492Z,6.43
2018-02-24T13:06:08.026Z,6.85
2018-02-24T13:08:35.592Z,7.28
2018-02-24T13:11:03.127Z,6.25
2018-02-24T13:13:31.455Z,7.53
2018-02-24T13:15:59.023Z,6.28
2018-02-24T13:18:26.585Z,7.22
2018-02-24T13:20:54.116Z,7.47
2018-02-24T13:23:21.649Z,8.20
2018-02-24T13:25:49.177Z,7.35
2018-02-24T13:28:16.715Z,6.60
2018-02-24T13:30:44.226Z,7.35
2018-02-24T13:33:11.774Z,7.00
2018-02-24T13:35:40.061Z,7.32
2018-02-24T13:38:07.700Z,6.57
2018-02-24T13:40:35.990Z,7.10
2018-02-24T13:43:04.383Z,6.60
2018-02-24T13:45:31.891Z,6.03
2018-02-24T13:47:59.430Z,7.15
2018-02-24T13:50:27.067Z,6.45
2018-02-24T13:52:54.654Z,6.45
2018-02-24T13:55:22.171Z,6.65
2018-02-24T13:57:49.716Z,6.30
2018-02-24T14:00:17.980Z,5.93
2018-02-24T14:02:46.303Z,5.47
2018-02-24T14:05:13.822Z,6.30
2018-02-24T14:07:42.179Z,6.03
2018-02-24T14:10:09.789Z,6.62
2018-02-24T14:12:37.312Z,5.70
2018-02-24T14:15:05.622Z,6.72
2018-02-24T14:17:33.170Z,6.55
2018-02-24T14:20:01.466Z,6.22
2018-02-24T14:22:32.205Z,6.65
2018-02-24T14:24:59.713Z,5.80
2018-02-24T14:27:28.059Z,5.97
2018-02-24T14:29:55.596Z,5.65
2018-02-24T14:32:23.135Z,5.40
2018-02-24T14:34:50.656Z,5.75
2018-02-24T14:37:18.197Z,5.90
2018-02-24T14:39:45.713Z,5.70
2018-02-24T14:42:13.280Z,5.37
2018-02-24T14:44:40.779Z,5.47
2018-02-24T14:47:08.385Z,4.57
2018-02-24T14:49:36.655Z,5.12
2018-02-24T14:52:04.991Z,4.45
2018-02-24T14:54:32.494Z,4.85
2018-02-24T14:57:00.760Z,4.40
2018-02-24T14:59:29.137Z,4.70
2018-02-24T15:01:57.435Z,4.78
2018-02-24T15:04:25.005Z,4.45
2018-02-24T15:06:52.578Z,5.37
2018-02-24T15:09:20.149Z,5.57
2018-02-24T15:11:47.679Z,4.97
2018-02-24T15:14:15.216Z,5.20
2018-02-24T15:16:43.501Z,4.50
2018-02-24T15:19:11.881Z,4.90
2018-02-24T15:21:40.175Z,4.90
2018-02-24T15:24:09.511Z,6.20
2018-02-24T15:26:37.054Z,5.60
2018-02-24T15:29:04.632Z,5.68
2018-02-24T15:31:32.143Z,5.87
2018-02-24T15:33:59.705Z,5.12
2018-02-24T15:36:27.223Z,5.85
2018-02-24T15:38:54.769Z,5.65
2018-02-24T15:41:22.294Z,5.00
2018-02-24T15:43:49.832Z,5.55
2018-02-24T15:46:17.375Z,5.60
2018-02-24T15:48:45.666Z,6.55
2018-02-24T15:51:13.168Z,5.95
2018-02-24T15:53:40.874Z,5.28
2018-02-24T15:56:09.340Z,5.50
2018-02-24T15:58:36.949Z,5.85
2018-02-24T16:01:04.513Z,7.07
2018-02-24T16:03:32.068Z,5.93
2018-02-24T16:05:59.607Z,8.13
2018-02-24T16:08:27.186Z,6.35
2018-02-24T16:10:54.728Z,6.03
2018-02-24T16:13:22.273Z,6.82
2018-02-24T16:15:50.575Z,6.25
2018-02-24T16:18:18.107Z,6.22
2018-02-24T16:20:46.415Z,7.00
2018-02-24T16:23:13.967Z,7.22
2018-02-24T16:25:41.497Z,6.03
2018-02-24T16:28:09.800Z,6.70
2018-02-24T16:30:37.353Z,6.82
2018-02-24T16:33:04.890Z,6.75
2018-02-24T16:35:33.204Z,6.78
2018-02-24T16:38:00.766Z,6.05
2018-02-24T16:40:28.466Z,6.45
2018-02-24T16:42:56.021Z,7.70
2018-02-24T16:45:23.567Z,6.85
2018-02-24T16:47:51.126Z,7.10
2018-02-24T16:50:18.712Z,7.20
2018-02-24T16:52:46.239Z,6.82
2018-02-24T16:55:13.869Z,7.15
2018-02-24T16:57:41.440Z,7.25
2018-02-24T17:00:08.999Z,6.28
2018-02-24T17:02:37.282Z,6.55
2018-02-24T17:05:04.804Z,7.78
2018-02-24T17:07:33.876Z,6.50
2018-02-24T17:10:01.481Z,6.40
2018-02-24T17:12:29.094Z,6.75
2018-02-24T17:14:58.258Z,7.18
2018-02-24T17:17:28.566Z,6.47
2018-02-24T17:19:56.104Z,9.60
2018-02-24T17:22:24.501Z,5.87
2018-02-24T17:24:52.071Z,5.97
2018-02-24T17:27:19.623Z,6.70
2018-02-24T17:29:48.468Z,6.35
2018-02-24T17:32:16.086Z,6.97
2018-02-24T17:34:44.500Z,7.00
2018-02-24T17:37:12.044Z,6.78
2018-02-24T17:39:39.610Z,6.60
2018-02-24T17:42:07.175Z,6.50
2018-02-24T17:44:34.724Z,6.65
2018-02-24T17:47:02.328Z,6.50
2018-02-24T17:49:29.887Z,6.80
2018-02-24T17:51:58.255Z,7.10
2018-02-24T17:54:35.796Z,6.03
2018-02-24T17:57:03.464Z,6.65
2018-02-24T17:59:30.972Z,6.20
2018-02-24T18:01:58.528Z,7.22
2018-02-24T18:04:26.158Z,7.22
2018-02-24T18:06:53.754Z,6.90
2018-02-24T18:09:22.088Z,6.78
2018-02-24T18:11:49.677Z,7.50
2018-02-24T18:14:17.308Z,6.05
2018-02-24T18:16:45.282Z,6.25
2018-02-24T18:19:14.254Z,6.80
2018-02-24T18:21:43.147Z,6.95
2018-02-24T18:24:10.740Z,7.20
2018-02-24T18:26:40.167Z,8.23
2018-02-24T18:29:08.090Z,8.15
2018-02-24T18:31:35.844Z,8.30
2018-02-24T18:34:03.389Z,8.68
2018-02-24T18:36:30.941Z,7.93
2018-02-24T18:39:00.730Z,8.23
2018-02-24T18:41:30.003Z,8.70
2018-02-24T18:43:59.083Z,8.57
2018-02-24T18:46:26.640Z,9.25
2018-02-24T18:48:54.240Z,9.30
2018-02-24T18:51:21.782Z,9.15
2018-02-24T18:53:49.338Z,7.60
2018-02-24T18:56:16.884Z,8.40
2018-02-24T18:58:45.380Z,7.37
2018-02-24T19:01:13.034Z,7.22
2018-02-24T19:03:40.730Z,7.40
2018-02-24T19:06:08.370Z,7.60
2018-02-24T19:08:36.911Z,8.32
2018-02-24T19:11:04.438Z,6.82
2018-02-24T19:13:32.764Z,7.80
2018-02-24T19:16:00.282Z,8.32
2018-02-24T19:18:28.592Z,7.30
2018-02-24T19:20:56.129Z,5.50
2018-02-24T19:23:23.792Z,6.35
2018-02-24T19:25:51.354Z,7.00
2018-02-24T19:28:20.188Z,5.68
2018-02-24T19:30:47.744Z,5.82
2018-02-24T19:33:15.452Z,5.43
2018-02-24T19:35:43.777Z,5.05
2018-02-24T19:38:12.076Z,6.40
2018-02-24T19:40:39.731Z,4.82
2018-02-24T19:43:10.509Z,5.50
2018-02-24T19:45:38.093Z,4.90
2018-02-24T19:48:05.678Z,4.22
2018-02-24T19:50:44.349Z,4.70
2018-02-24T19:53:12.830Z,4.93
2018-02-24T19:55:40.400Z,4.32
2018-02-24T19:58:08.032Z,4.03
2018-02-24T20:00:36.363Z,3.75
2018-02-24T20:03:03.915Z,4.10
2018-02-24T20:05:31.415Z,4.00
2018-02-24T20:07:58.967Z,3.90
2018-02-24T20:10:26.513Z,3.80
2018-02-24T20:12:54.059Z,3.45
2018-02-24T20:15:21.715Z,4.10
2018-02-24T20:17:49.269Z,3.60
2018-02-24T20:20:16.807Z,3.70
2018-02-24T20:22:44.368Z,3.40
2018-02-24T20:25:11.954Z,4.00
2018-02-24T20:27:39.644Z,4.07
2018-02-24T20:30:17.186Z,4.60
2018-02-24T20:32:45.718Z,3.42
2018-02-24T20:35:14.289Z,3.50
2018-02-24T20:37:41.848Z,3.55
2018-02-24T20:40:09.436Z,3.70
2018-02-24T20:42:37.027Z,7.10
2018-02-24T20:45:04.620Z,3.30
2018-02-24T20:47:32.280Z,3.00
2018-02-24T20:49:59.888Z,3.40
2018-02-24T20:52:28.180Z,3.55
2018-02-24T20:54:56.567Z,3.55
2018-02-24T20:57:24.128Z,3.25
2018-02-24T20:59:51.656Z,3.10
2018-02-24T21:02:19.176Z,3.83
2018-02-24T21:04:46.744Z,3.42
2018-02-24T21:07:14.296Z,3.55
2018-02-24T21:09:42.668Z,3.10
2018-02-24T21:12:10.229Z,3.10
2018-02-24T21:14:37.929Z,2.85
2018-02-24T21:17:05.462Z,2.90
2018-02-24T21:19:33.014Z,3.33
2018-02-24T21:22:00.579Z,3.40
2018-02-24T21:24:28.111Z,3.55
2018-02-24T21:26:55.669Z,3.33
2018-02-24T21:29:23.215Z,3.85
2018-02-24T21:31:50.819Z,3.70
2018-02-24T21:34:18.513Z,3.30
2018-02-24T21:36:46.110Z,2.70
2018-02-24T21:39:14.407Z,3.05
2018-02-24T21:41:42.004Z,3.33
2018-02-24T21:44:11.028Z,3.72
2018-02-24T21:46:38.595Z,3.78
2018-02-24T21:49:06.181Z,3.37
2018-02-24T21:51:35.505Z,2.97
2018-02-24T21:54:03.022Z,3.67
2018-02-24T21:56:31.546Z,3.47
2018-02-24T21:58:59.109Z,3.12
2018-02-24T22:01:26.724Z,4.65
2018-02-24T22:03:54.273Z,3.95
2018-02-24T22:06:22.007Z,3.30
2018-02-24T22:08:49.495Z,3.50
2018-02-24T22:11:17.041Z,3.92
2018-02-24T22:13:45.320Z,3.50
2018-02-24T22:16:13.644Z,3.00
2018-02-24T22:18:42.564Z,3.72
2018-02-24T22:21:10.127Z,3.40
2018-02-24T22:23:37.734Z,3.08
2018-02-24T22:26:05.294Z,3.35
2018-02-24T22:28:32.927Z,3.25
2018-02-24T22:31:01.281Z,2.92
2018-02-24T22:33:28.837Z,3.47
2018-02-24T22:35:56.371Z,3.72
2018-02-24T22:38:23.910Z,3.30
2018-02-24T22:40:51.466Z,3.30
2018-02-24T22:43:19.152Z,3.12
2018-02-24T22:45:46.727Z,2.50
2018-02-24T22:48:19.858Z,2.50
2018-02-24T22:50:48.237Z,3.40
2018-02-24T22:53:16.538Z,3.55
2018-02-24T22:55:44.044Z,3.20
2018-02-24T22:58:11.598Z,2.87
2018-02-24T23:00:39.907Z,2.92
2018-02-24T23:03:08.203Z,2.65
2018-02-24T23:05:35.701Z,3.42
2018-02-24T23:08:04.003Z,3.35
2018-02-24T23:10:31.532Z,3.00
2018-02-24T23:12:59.144Z,2.78
2018-02-24T23:15:26.713Z,2.90
2018-02-24T23:17:54.247Z,3.35
2018-02-24T23:20:22.977Z,2.50
2018-02-24T23:22:50.485Z,3.10
2018-02-24T23:25:18.780Z,2.80
2018-02-24T23:27:47.148Z,3.20
2018-02-24T23:30:15.478Z,2.58
2018-02-24T23:32:43.017Z,3.30
2018-02-24T23:35:10.683Z,4.00
2018-02-24T23:37:38.173Z,3.00
2018-02-24T23:40:05.726Z,3.62
2018-02-24T23:42:33.272Z,3.50
2018-02-24T23:45:00.907Z,3.30
2018-02-24T23:47:28.443Z,3.03
2018-02-24T23:49:56.770Z,2.55
2018-02-24T23:52:24.297Z,2.83
2018-02-24T23:54:51.884Z,2.95
2018-02-24T23:57:19.466Z,2.80
2018-02-24T23:59:47.811Z,3.17
